createdAt,value
2023-04-15T00:01:53.720Z,2.00
2023-04-15T00:04:57.187Z,3.00
2023-04-15T00:08:01.423Z,2.00
2023-04-15T00:11:06.070Z,2.00
2023-04-15T00:14:10.750Z,4.00
2023-04-15T00:17:14.177Z,2.50
2023-04-15T00:20:17.684Z,2.60
2023-04-15T00:23:21.033Z,3.00
2023-04-15T00:26:24.252Z,2.00
2023-04-15T00:29:29.641Z,3.00
2023-04-15T00:32:32.949Z,2.80
2023-04-15T00:35:36.864Z,3.20
2023-04-15T00:38:40.315Z,3.60
2023-04-15T00:41:43.735Z,3.00
2023-04-15T00:44:48.820Z,5.00
2023-04-15T00:47:52.496Z,2.00
2023-04-15T00:50:55.789Z,3.80
2023-04-15T00:53:59.627Z,3.00
2023-04-15T00:57:03.615Z,4.00
2023-04-15T01:00:11.543Z,3.00
2023-04-15T01:03:15.814Z,3.40
2023-04-15T01:06:20.328Z,4.00
2023-04-15T01:09:23.693Z,2.00
2023-04-15T01:12:28.551Z,4.40
2023-04-15T01:15:33.798Z,4.00
2023-04-15T01:18:37.732Z,3.00
2023-04-15T01:21:42.975Z,4.00
2023-04-15T01:24:54.380Z,4.00
2023-04-15T01:27:59.825Z,5.00
2023-04-15T01:31:10.834Z,4.00
2023-04-15T01:34:14.485Z,3.00
2023-04-15T01:37:36.094Z,4.40
2023-04-15T01:40:40.168Z,3.00
2023-04-15T01:43:45.988Z,4.40
2023-04-15T01:46:50.519Z,4.40
2023-04-15T01:49:55.090Z,4.00
2023-04-15T01:52:59.877Z,5.00
2023-04-15T01:56:04.532Z,3.60
2023-04-15T01:59:10.417Z,3.00
2023-04-15T02:02:16.329Z,4.00
2023-04-15T02:05:21.449Z,4.00
2023-04-15T02:08:25.958Z,4.00
2023-04-15T02:11:30.429Z,3.00
2023-04-15T02:14:36.470Z,3.40
2023-04-15T02:17:40.966Z,3.00
2023-04-15T02:20:47.126Z,3.00
2023-04-15T02:23:54.005Z,3.00
2023-04-15T02:26:58.965Z,5.00
2023-04-15T02:30:05.396Z,3.40
2023-04-15T02:33:12.772Z,3.80
2023-04-15T02:36:17.329Z,3.00
2023-04-15T02:39:21.841Z,4.50
2023-04-15T02:42:28.852Z,2.20
2023-04-15T02:45:35.428Z,3.00
2023-04-15T02:48:42.177Z,3.60
2023-04-15T02:51:49.527Z,5.00
2023-04-15T02:54:57.522Z,4.00
2023-04-15T02:58:02.098Z,5.00
2023-04-15T03:01:08.936Z,3.20
2023-04-15T03:04:14.512Z,3.00
2023-04-15T03:07:19.599Z,3.00
2023-04-15T03:10:24.767Z,5.60
2023-04-15T03:13:29.448Z,4.40
2023-04-15T03:16:37.520Z,3.00
2023-04-15T03:19:42.233Z,5.00
2023-04-15T03:22:46.932Z,4.25
2023-04-15T03:25:56.476Z,4.00
2023-04-15T03:29:02.098Z,4.60
2023-04-15T03:32:08.600Z,7.00
2023-04-15T03:35:13.155Z,4.00
2023-04-15T03:38:17.643Z,4.00
2023-04-15T03:41:22.656Z,4.00
2023-04-15T03:44:27.840Z,5.40
2023-04-15T03:47:33.734Z,5.00
2023-04-15T03:50:38.261Z,3.00
2023-04-15T03:53:42.789Z,2.00
2023-04-15T03:56:47.322Z,3.00
2023-04-15T03:59:51.764Z,3.00
2023-04-15T04:02:58.207Z,3.00
2023-04-15T04:06:03.381Z,4.00
2023-04-15T04:09:08.014Z,4.00
2023-04-15T04:12:12.481Z,6.40
2023-04-15T04:15:17.167Z,3.75
2023-04-15T04:18:23.202Z,3.00
2023-04-15T04:21:27.840Z,4.00
2023-04-15T04:24:32.801Z,3.50
2023-04-15T04:27:38.006Z,4.00
2023-04-15T04:30:42.476Z,4.60
2023-04-15T04:33:48.367Z,3.00
2023-04-15T04:36:52.830Z,2.60
2023-04-15T04:39:57.587Z,3.60
2023-04-15T04:43:02.761Z,6.00
2023-04-15T04:46:07.254Z,4.50
2023-04-15T04:49:13.108Z,4.20
2023-04-15T04:52:17.701Z,4.20
2023-04-15T04:55:22.346Z,2.25
2023-04-15T04:58:27.413Z,6.00
2023-04-15T05:01:32.071Z,5.00
2023-04-15T05:04:38.131Z,5.00
2023-04-15T05:07:42.629Z,2.80
2023-04-15T05:10:47.468Z,5.40
2023-04-15T05:13:51.990Z,6.00
2023-04-15T05:16:56.849Z,5.80
2023-04-15T05:20:03.452Z,6.20
2023-04-15T05:23:08.022Z,6.60
2023-04-15T05:26:12.534Z,3.75
2023-04-15T05:29:17.192Z,4.00
2023-04-15T05:32:21.727Z,4.00
2023-04-15T05:35:27.575Z,4.00
2023-04-15T05:38:32.052Z,5.00
2023-04-15T05:41:36.702Z,3.00
2023-04-15T05:44:41.249Z,7.00
2023-04-15T05:47:45.889Z,5.60
2023-04-15T05:50:51.837Z,6.00
2023-04-15T05:53:56.404Z,3.80
2023-04-15T05:57:01.033Z,4.00
2023-04-15T06:00:07.352Z,17.00
2023-04-15T06:03:18.164Z,5.80
2023-04-15T06:06:24.402Z,6.80
2023-04-15T06:09:29.064Z,6.00
2023-04-15T06:12:33.821Z,5.00
2023-04-15T06:15:38.650Z,5.00
2023-04-15T06:18:43.281Z,5.50
2023-04-15T06:21:50.412Z,8.80
2023-04-15T06:24:55.786Z,5.00
2023-04-15T06:28:04.182Z,3.00
2023-04-15T06:31:09.490Z,3.00
2023-04-15T06:34:14.372Z,5.00
2023-04-15T06:37:20.815Z,11.00
2023-04-15T06:40:25.294Z,4.00
2023-04-15T06:43:30.170Z,6.00
2023-04-15T06:46:35.087Z,5.40
2023-04-15T06:49:40.542Z,4.40
2023-04-15T06:52:46.950Z,6.00
2023-04-15T06:55:51.436Z,5.00
2023-04-15T06:58:56.257Z,6.40
2023-04-15T07:02:00.927Z,9.00
2023-04-15T07:05:06.199Z,6.00
2023-04-15T07:08:12.337Z,4.60
2023-04-15T07:11:17.597Z,5.00
2023-04-15T07:14:22.224Z,4.75
2023-04-15T07:17:26.753Z,4.00
2023-04-15T07:20:31.256Z,6.00
2023-04-15T07:23:37.166Z,5.80
2023-04-15T07:26:41.631Z,5.00
2023-04-15T07:29:46.089Z,5.00
2023-04-15T07:32:50.613Z,9.50
2023-04-15T07:35:55.117Z,4.00
2023-04-15T07:39:02.301Z,3.00
2023-04-15T07:42:07.067Z,5.40
2023-04-15T07:45:12.897Z,5.40
2023-04-15T07:48:17.499Z,4.00
2023-04-15T07:51:22.321Z,4.00
2023-04-15T07:54:28.809Z,5.00
2023-04-15T07:57:33.251Z,4.00
2023-04-15T08:00:38.608Z,5.40
2023-04-15T08:03:43.317Z,4.00
2023-04-15T08:06:50.281Z,5.60
2023-04-15T08:09:56.094Z,4.00
2023-04-15T08:13:01.110Z,3.60
2023-04-15T08:16:18.771Z,3.00
2023-04-15T08:19:24.355Z,2.20
2023-04-15T08:22:28.819Z,3.00
2023-04-15T08:25:34.883Z,3.33
2023-04-15T08:28:40.571Z,5.20
2023-04-15T08:31:45.858Z,4.00
2023-04-15T08:34:50.367Z,4.00
2023-04-15T08:37:54.993Z,3.00
2023-04-15T08:41:04.925Z,4.00
2023-04-15T08:44:10.202Z,4.00
2023-04-15T08:47:15.850Z,4.00
2023-04-15T08:50:22.294Z,4.00
2023-04-15T08:53:27.683Z,4.75
2023-04-15T08:56:35.623Z,3.00
2023-04-15T08:59:41.256Z,8.60
2023-04-15T09:02:46.693Z,4.60
2023-04-15T09:05:53.259Z,5.20
2023-04-15T09:09:01.441Z,6.40
2023-04-15T09:12:12.084Z,6.80
2023-04-15T09:15:17.760Z,6.00
2023-04-15T09:18:30.800Z,4.25
2023-04-15T09:21:35.765Z,5.80
2023-04-15T09:24:43.406Z,4.00
2023-04-15T09:27:51.073Z,6.00
2023-04-15T09:30:57.887Z,6.00
2023-04-15T09:34:03.395Z,4.00
2023-04-15T09:37:08.142Z,4.00
2023-04-15T09:40:13.970Z,4.80
2023-04-15T09:43:19.926Z,5.40
2023-04-15T09:46:42.683Z,6.25
2023-04-15T09:49:57.054Z,4.60
2023-04-15T09:53:04.969Z,4.80
2023-04-15T09:56:10.625Z,6.00
2023-04-15T09:59:16.579Z,5.00
2023-04-15T10:02:22.019Z,4.00
2023-04-15T10:05:26.979Z,6.00
2023-04-15T10:08:32.996Z,6.00
2023-04-15T10:11:37.737Z,4.00
2023-04-15T10:14:45.487Z,4.00
2023-04-15T10:17:54.781Z,4.60
2023-04-15T10:21:02.362Z,4.00
2023-04-15T10:24:08.683Z,3.00
2023-04-15T10:27:13.355Z,3.40
2023-04-15T10:30:19.951Z,4.00
2023-04-15T10:33:26.761Z,5.00
2023-04-15T10:36:31.551Z,4.00
2023-04-15T10:39:44.467Z,2.40
2023-04-15T10:42:49.749Z,4.00
2023-04-15T10:45:55.628Z,3.60
2023-04-15T10:49:00.111Z,4.00
2023-04-15T10:52:04.804Z,3.20
2023-04-15T10:55:15.879Z,4.00
2023-04-15T10:58:20.364Z,4.25
2023-04-15T11:01:52.848Z,5.00
2023-04-15T11:04:59.547Z,4.00
2023-04-15T11:08:04.740Z,4.00
2023-04-15T11:11:09.261Z,3.75
2023-04-15T11:14:16.775Z,4.00
2023-04-15T11:17:30.080Z,5.00
2023-04-15T11:20:35.442Z,6.00
2023-04-15T11:23:44.497Z,5.00
2023-04-15T11:26:48.947Z,5.00
2023-04-15T11:29:53.532Z,4.00
2023-04-15T11:33:02.264Z,4.80
2023-04-15T11:36:07.933Z,5.40
2023-04-15T11:39:12.356Z,4.60
2023-04-15T11:42:18.769Z,3.20
2023-04-15T11:45:23.213Z,6.40
2023-04-15T11:48:30.795Z,5.00
2023-04-15T11:51:35.549Z,7.00
2023-04-15T11:54:39.257Z,7.00
2023-04-15T11:57:43.180Z,5.00
2023-04-15T12:00:52.520Z,7.00
2023-04-15T12:03:59.989Z,6.40
2023-04-15T12:07:06.660Z,7.00
2023-04-15T12:10:09.983Z,5.40
2023-04-15T12:13:13.222Z,4.40
2023-04-15T12:16:18.926Z,4.80
2023-04-15T12:19:28.735Z,7.25
2023-04-15T12:22:32.028Z,2.75
2023-04-15T12:25:36.522Z,3.75
2023-04-15T12:28:41.878Z,2.00
2023-04-15T12:31:53.293Z,2.00
2023-04-15T12:34:58.284Z,3.00
2023-04-15T12:38:01.520Z,5.80
2023-04-15T12:41:04.751Z,4.00
2023-04-15T12:44:08.638Z,3.25
2023-04-15T12:47:12.847Z,5.00
2023-04-15T12:50:18.532Z,3.00
2023-04-15T12:53:22.006Z,3.20
2023-04-15T12:56:25.406Z,6.00
2023-04-15T12:59:29.920Z,5.00
2023-04-15T13:02:33.336Z,3.00
2023-04-15T13:05:39.898Z,6.50
2023-04-15T13:08:55.091Z,5.00
2023-04-15T13:12:02.114Z,3.60
2023-04-15T13:15:06.025Z,5.00
2023-04-15T13:18:09.811Z,6.00
2023-04-15T13:21:14.818Z,3.00
2023-04-15T13:24:17.975Z,5.00
2023-04-15T13:27:21.550Z,2.25
2023-04-15T13:30:24.777Z,5.00
2023-04-15T13:33:28.456Z,4.40
2023-04-15T13:36:33.080Z,3.00
2023-04-15T13:39:36.521Z,5.00
2023-04-15T13:42:39.683Z,3.40
2023-04-15T13:45:43.020Z,6.00
2023-04-15T13:48:46.290Z,5.00
2023-04-15T13:51:50.963Z,3.00
2023-04-15T13:55:19.407Z,4.00
2023-04-15T13:58:17.778Z,4.00
2023-04-15T14:01:21.263Z,5.50
2023-04-15T14:04:24.816Z,7.00
2023-04-15T14:07:30.762Z,5.00
2023-04-15T14:10:34.136Z,3.80
2023-04-15T14:13:37.504Z,5.00
2023-04-15T14:16:40.874Z,6.00
2023-04-15T14:19:44.229Z,4.60
2023-04-15T14:22:48.875Z,5.00
2023-04-15T14:25:52.838Z,4.60
2023-04-15T14:28:56.345Z,4.80
2023-04-15T14:32:08.619Z,4.00
2023-04-15T14:35:16.270Z,4.00
2023-04-15T14:38:22.720Z,6.00
2023-04-15T14:41:26.177Z,5.75
2023-04-15T14:47:32.952Z,5.00
2023-04-15T14:50:36.186Z,6.00
2023-04-15T14:53:41.188Z,6.80
2023-04-15T14:56:44.365Z,7.00
2023-04-15T14:59:47.712Z,6.75
2023-04-15T15:02:51.100Z,7.40
2023-04-15T15:05:54.656Z,12.00
2023-04-15T15:08:59.360Z,8.40
2023-04-15T15:12:02.944Z,9.60
2023-04-15T15:15:19.588Z,8.00
2023-04-15T15:18:30.492Z,8.00
2023-04-15T15:21:33.687Z,9.00
2023-04-15T15:24:38.235Z,9.00
2023-04-15T15:27:41.604Z,8.00
2023-04-15T15:30:44.855Z,9.40
2023-04-15T15:33:47.992Z,9.00
2023-04-15T15:36:51.216Z,6.00
2023-04-15T15:39:56.276Z,10.00
2023-04-15T15:42:59.504Z,9.20
2023-04-15T15:46:02.986Z,7.00
2023-04-15T15:49:06.420Z,8.00
2023-04-15T15:52:10.042Z,11.00
2023-04-15T15:55:14.617Z,7.00
2023-04-15T15:58:17.892Z,6.50
2023-04-15T16:01:21.356Z,10.00
2023-04-15T16:04:24.827Z,9.40
2023-04-15T16:07:28.270Z,7.00
2023-04-15T16:10:32.977Z,7.00
2023-04-15T16:13:36.342Z,8.40
2023-04-15T16:16:40.849Z,10.60
2023-04-15T16:20:00.255Z,8.00
2023-04-15T16:23:12.665Z,6.00
2023-04-15T16:26:18.243Z,10.00
2023-04-15T16:29:29.456Z,8.20
2023-04-15T16:32:32.850Z,9.00
2023-04-15T16:35:36.173Z,10.00
2023-04-15T16:38:39.466Z,7.00
2023-04-15T16:41:43.981Z,6.00
2023-04-15T16:44:47.272Z,6.00
2023-04-15T16:47:50.620Z,4.00
2023-04-15T16:50:54.305Z,5.00
2023-04-15T16:53:57.523Z,5.00
2023-04-15T16:57:02.115Z,6.80
2023-04-15T17:00:06.061Z,5.00
2023-04-15T17:03:09.583Z,5.20
2023-04-15T17:06:13.120Z,13.50
2023-04-15T17:09:16.471Z,12.00
2023-04-15T17:12:21.070Z,9.00
2023-04-15T17:15:24.488Z,10.00
2023-04-15T17:18:38.041Z,10.00
2023-04-15T17:21:49.441Z,7.00
2023-04-15T17:24:57.251Z,11.00
2023-04-15T17:28:02.172Z,10.20
2023-04-15T17:31:07.275Z,11.60
2023-04-15T17:34:49.667Z,18.00
2023-04-15T17:38:13.895Z,19.40
2023-04-15T17:41:37.068Z,18.80
2023-04-15T17:45:02.394Z,25.80
2023-04-15T17:48:26.879Z,10.75
2023-04-15T17:51:50.073Z,13.00
2023-04-15T17:55:13.795Z,10.00
2023-04-15T17:58:39.167Z,13.40
2023-04-15T18:02:03.949Z,13.00
2023-04-15T18:05:27.304Z,12.60
2023-04-15T18:08:50.466Z,12.00
2023-04-15T18:12:14.120Z,16.00
2023-04-15T18:15:37.547Z,20.00
2023-04-15T18:19:02.334Z,16.80
2023-04-15T18:22:05.616Z,14.00
2023-04-15T18:25:09.571Z,16.00
2023-04-15T18:28:12.930Z,19.00
2023-04-15T18:31:16.240Z,17.00
2023-04-15T18:34:21.102Z,18.50
2023-04-15T18:37:25.082Z,19.50
2023-04-15T18:40:28.331Z,18.25
2023-04-15T18:43:31.572Z,20.20
2023-04-15T18:46:34.896Z,20.00
2023-04-15T18:49:39.563Z,24.75
2023-04-15T18:52:43.000Z,22.00
2023-04-15T18:55:46.727Z,36.00
2023-04-15T18:59:23.054Z,40.00
2023-04-15T19:02:13.159Z,32.00
2023-04-15T19:05:18.423Z,33.00
2023-04-15T19:08:21.734Z,30.00
2023-04-15T19:11:24.973Z,27.75
2023-04-15T19:14:28.240Z,25.00
2023-04-15T19:17:31.523Z,31.40
2023-04-15T19:20:37.898Z,33.00
2023-04-15T19:23:43.925Z,27.40
2023-04-15T19:26:50.762Z,28.50
2023-04-15T19:29:54.140Z,29.00
2023-04-15T19:32:57.494Z,24.40
2023-04-15T19:36:04.147Z,24.00
2023-04-15T19:39:07.739Z,24.80
2023-04-15T19:42:11.804Z,26.60
2023-04-15T19:45:14.994Z,35.00
2023-04-15T19:48:19.215Z,31.50
2023-04-15T19:51:24.304Z,30.00
2023-04-15T19:54:27.606Z,29.00
2023-04-15T19:57:30.907Z,30.00
2023-04-15T20:00:34.127Z,30.40
2023-04-15T20:03:37.533Z,33.50
2023-04-15T20:06:42.349Z,22.00
2023-04-15T20:09:45.545Z,29.60
2023-04-15T20:12:52.749Z,26.00
2023-04-15T20:15:57.143Z,51.00
2023-04-15T20:19:04.186Z,28.60
2023-04-15T20:22:09.178Z,27.75
2023-04-15T20:25:12.585Z,26.50
2023-04-15T20:28:17.722Z,27.25
2023-04-15T20:31:22.634Z,26.00
2023-04-15T20:34:26.165Z,23.20
2023-04-15T20:37:33.277Z,29.00
2023-04-15T20:40:36.926Z,25.50
2023-04-15T20:43:40.153Z,25.40
2023-04-15T20:46:43.420Z,23.20
2023-04-15T20:49:47.521Z,23.00
2023-04-15T20:52:52.181Z,25.00
2023-04-15T20:55:55.530Z,24.40
2023-04-15T20:58:59.006Z,28.00
2023-04-15T21:02:02.374Z,25.60
2023-04-15T21:05:06.440Z,24.25
2023-04-15T21:08:11.075Z,23.67
2023-04-15T21:11:21.020Z,25.25
2023-04-15T21:14:32.460Z,25.00
2023-04-15T21:17:36.356Z,27.20
2023-04-15T21:20:39.602Z,27.00
2023-04-15T21:23:44.838Z,27.00
2023-04-15T21:26:48.073Z,27.00
2023-04-15T21:29:51.634Z,27.00
2023-04-15T21:32:55.782Z,23.60
2023-04-15T21:35:59.086Z,24.40
2023-04-15T21:39:04.308Z,26.00
2023-04-15T21:42:07.819Z,26.00
2023-04-15T21:45:12.199Z,24.00
2023-04-15T21:48:15.629Z,25.20
2023-04-15T21:51:18.936Z,25.00
2023-04-15T21:54:23.587Z,32.00
2023-04-15T21:57:26.812Z,26.25
2023-04-15T22:00:30.027Z,30.00
2023-04-15T22:03:34.713Z,27.00
2023-04-15T22:06:38.196Z,27.75
2023-04-15T22:09:42.718Z,28.20
2023-04-15T22:12:45.971Z,30.50
2023-04-15T22:15:49.211Z,33.00
2023-04-15T22:18:52.523Z,33.40
2023-04-15T22:21:55.781Z,30.00
2023-04-15T22:25:00.343Z,31.25
2023-04-15T22:28:03.713Z,28.33
2023-04-15T22:31:07.035Z,31.00
2023-04-15T22:34:10.417Z,30.00
2023-04-15T22:37:13.780Z,35.00
2023-04-15T22:40:18.666Z,32.00
2023-04-15T22:43:21.972Z,34.00
2023-04-15T22:46:25.325Z,34.25
2023-04-15T22:49:28.612Z,34.20
2023-04-15T22:52:31.865Z,32.40
2023-04-15T22:55:36.830Z,29.00
2023-04-15T22:58:40.054Z,37.75
2023-04-15T23:01:43.297Z,36.40
2023-04-15T23:04:46.943Z,31.50
2023-04-15T23:07:50.216Z,34.00
2023-04-15T23:10:54.815Z,33.00
2023-04-15T23:13:58.046Z,38.60
2023-04-15T23:17:01.300Z,33.60
2023-04-15T23:20:04.644Z,30.60
2023-04-15T23:23:07.901Z,31.40
2023-04-15T23:26:12.493Z,27.40
2023-04-15T23:29:15.755Z,29.00
2023-04-15T23:32:19.387Z,30.00
2023-04-15T23:35:22.848Z,33.40
2023-04-15T23:38:26.012Z,32.00
2023-04-15T23:41:30.646Z,31.00
2023-04-15T23:44:33.865Z,30.25
2023-04-15T23:47:37.335Z,29.80
2023-04-15T23:50:40.613Z,28.40
2023-04-15T23:53:44.293Z,29.00
2023-04-15T23:56:51.102Z,35.40
2023-04-15T23:59:55.017Z,29.25
